createdAt,value
2022-09-05T00:00:20.767Z,15.75
2022-09-05T00:02:06.095Z,15.81
2022-09-05T00:03:21.749Z,15.81
2022-09-05T00:04:35.173Z,15.72
2022-09-05T00:06:02.778Z,15.71
2022-09-05T00:07:36.032Z,15.76
2022-09-05T00:08:22.947Z,15.83
2022-09-05T00:09:39.228Z,15.89
2022-09-05T00:11:43.062Z,15.95
2022-09-05T00:12:15.698Z,15.97
2022-09-05T00:13:37.374Z,15.99
2022-09-05T00:15:16.730Z,15.87
2022-09-05T00:16:34.182Z,15.95
2022-09-05T00:18:32.471Z,16.00
2022-09-05T00:24:26.872Z,15.95
2022-09-05T00:24:31.033Z,16.11
2022-09-05T00:26:33.535Z,16.08
2022-09-05T00:27:58.937Z,16.11
2022-09-05T00:29:21.781Z,16.21
2022-09-05T00:31:51.505Z,16.23
2022-09-05T00:32:02.529Z,16.28
2022-09-05T00:33:17.511Z,16.32
2022-09-05T00:34:36.195Z,16.34
2022-09-05T00:35:49.587Z,16.42
2022-09-05T00:36:55.422Z,16.35
2022-09-05T00:38:02.492Z,16.28
2022-09-05T00:39:15.871Z,16.26
2022-09-05T00:40:36.748Z,16.19
2022-09-05T00:41:42.946Z,16.23
2022-09-05T00:42:50.024Z,16.30
2022-09-05T00:44:00.323Z,16.30
2022-09-05T00:45:14.612Z,16.30
2022-09-05T00:46:32.988Z,16.34
2022-09-05T00:47:41.980Z,16.33
2022-09-05T00:48:54.911Z,16.21
2022-09-05T00:51:28.534Z,16.21
2022-09-05T00:52:43.780Z,16.07
2022-09-05T00:54:03.690Z,15.93
2022-09-05T00:55:27.907Z,15.97
2022-09-05T00:56:45.289Z,15.96
2022-09-05T00:58:20.601Z,15.89
2022-09-05T00:59:59.133Z,15.95
2022-09-05T01:01:12.080Z,16.03
2022-09-05T01:02:37.902Z,16.09
2022-09-05T01:03:58.209Z,16.09
2022-09-05T01:05:19.611Z,16.02
2022-09-05T01:06:35.621Z,16.08
2022-09-05T01:09:29.054Z,16.16
2022-09-05T01:11:08.052Z,16.07
2022-09-05T01:12:16.120Z,15.99
2022-09-05T01:13:53.873Z,15.91
2022-09-05T01:15:20.616Z,16.01
2022-09-05T01:17:04.187Z,15.95
2022-09-05T01:18:17.402Z,15.87
2022-09-05T01:19:47.687Z,15.95
2022-09-05T01:20:59.308Z,15.92
2022-09-05T01:22:10.467Z,15.92
2022-09-05T01:23:50.321Z,15.91
2022-09-05T01:25:15.096Z,15.89
2022-09-05T01:29:15.426Z,15.96
2022-09-05T01:29:55.610Z,15.94
2022-09-05T01:31:14.636Z,15.97
2022-09-05T01:32:42.096Z,16.03
2022-09-05T01:33:59.018Z,15.82
2022-09-05T01:35:42.225Z,15.83
2022-09-05T01:37:00.229Z,15.77
2022-09-05T01:38:12.966Z,15.66
2022-09-05T01:40:14.413Z,15.56
2022-09-05T01:41:18.434Z,15.44
2022-09-05T01:42:12.322Z,15.31
2022-09-05T01:43:31.810Z,15.27
2022-09-05T01:45:03.360Z,15.33
2022-09-05T01:46:33.835Z,15.30
2022-09-05T01:47:48.383Z,15.27
2022-09-05T01:49:09.462Z,15.29
2022-09-05T01:50:51.959Z,15.33
2022-09-05T01:52:33.769Z,15.27
2022-09-05T01:55:34.866Z,15.34
2022-09-05T01:56:43.740Z,15.24
2022-09-05T01:58:03.334Z,15.27
2022-09-05T01:59:15.116Z,15.17
2022-09-05T02:00:32.750Z,15.12
2022-09-05T02:01:52.192Z,15.26
2022-09-05T02:02:59.580Z,15.31
2022-09-05T02:04:12.121Z,15.36
2022-09-05T02:05:48.691Z,15.35
2022-09-05T02:06:45.425Z,15.31
2022-09-05T02:08:12.058Z,15.31
2022-09-05T02:09:31.126Z,15.36
2022-09-05T02:10:57.294Z,15.15
2022-09-05T02:12:04.005Z,15.19
2022-09-05T02:13:32.618Z,15.21
2022-09-05T02:14:45.549Z,15.24
2022-09-05T02:15:59.904Z,15.13
2022-09-05T02:17:23.423Z,15.18
2022-09-05T02:18:43.867Z,15.29
2022-09-05T02:19:51.068Z,15.15
2022-09-05T02:21:01.466Z,15.12
2022-09-05T02:22:14.478Z,15.21
2022-09-05T02:23:27.363Z,15.25
2022-09-05T02:24:39.968Z,15.39
2022-09-05T02:26:19.997Z,15.36
2022-09-05T02:28:04.246Z,15.51
2022-09-05T02:28:49.596Z,15.55
2022-09-05T02:30:09.446Z,15.61
2022-09-05T02:31:23.848Z,15.54
2022-09-05T02:33:03.062Z,15.55
2022-09-05T02:34:25.206Z,15.55
2022-09-05T02:35:37.327Z,15.44
2022-09-05T02:36:45.016Z,15.48
2022-09-05T02:40:00.935Z,15.40
2022-09-05T02:45:02.366Z,15.45
2022-09-05T02:45:06.887Z,15.31
2022-09-05T02:45:14.210Z,15.32
2022-09-05T02:45:14.649Z,15.17
2022-09-05T02:45:26.889Z,15.18
2022-09-05T02:48:27.228Z,15.52
2022-09-05T02:52:29.242Z,15.38
2022-09-05T02:57:25.826Z,15.43
2022-09-05T02:57:27.121Z,15.16
2022-09-05T02:57:39.221Z,15.38
2022-09-05T02:57:40.618Z,15.27
2022-09-05T02:58:07.199Z,15.49
2022-09-05T03:03:50.975Z,15.57
2022-09-05T03:05:04.651Z,15.48
2022-09-05T03:06:15.901Z,15.48
2022-09-05T03:07:45.531Z,15.38
2022-09-05T03:09:16.702Z,15.31
2022-09-05T03:10:53.706Z,15.23
2022-09-05T03:12:28.907Z,15.28
2022-09-05T03:13:28.427Z,15.25
2022-09-05T03:14:41.790Z,15.32
2022-09-05T03:16:24.373Z,15.37
2022-09-05T03:17:56.676Z,15.25
2022-09-05T03:19:16.337Z,15.21
2022-09-05T03:20:51.999Z,15.29
2022-09-05T03:22:17.540Z,15.32
2022-09-05T03:23:30.766Z,15.35
2022-09-05T03:25:06.364Z,15.20
2022-09-05T03:26:28.950Z,15.29
2022-09-05T03:28:11.558Z,15.20
2022-09-05T03:29:36.648Z,15.30
2022-09-05T03:31:20.561Z,15.29
2022-09-05T03:32:43.676Z,15.31
2022-09-05T03:34:15.108Z,15.31
2022-09-05T03:35:56.802Z,15.43
2022-09-05T03:37:07.304Z,15.42
2022-09-05T03:38:31.562Z,15.38
2022-09-05T03:40:16.082Z,15.36
2022-09-05T03:41:40.160Z,15.35
2022-09-05T03:43:01.909Z,15.32
2022-09-05T03:44:26.303Z,15.45
2022-09-05T03:45:46.168Z,15.55
2022-09-05T03:47:09.242Z,15.56
2022-09-05T03:48:28.730Z,15.70
2022-09-05T03:52:21.343Z,15.73
2022-09-05T03:57:05.990Z,15.78
2022-09-05T03:57:07.182Z,15.75
2022-09-05T03:57:17.660Z,15.93
2022-09-05T03:57:19.160Z,15.82
2022-09-05T03:57:38.649Z,15.95
2022-09-05T03:58:55.483Z,15.86
2022-09-05T04:00:11.262Z,15.83
2022-09-05T04:03:30.787Z,15.89
2022-09-05T04:05:31.038Z,15.85
2022-09-05T04:08:10.952Z,15.89
2022-09-05T04:08:17.043Z,15.94
2022-09-05T04:08:18.539Z,15.94
2022-09-05T04:08:19.632Z,15.90
2022-09-05T04:08:59.926Z,15.81
2022-09-05T04:10:28.052Z,15.83
2022-09-05T04:11:47.761Z,15.75
2022-09-05T04:12:55.213Z,15.79
2022-09-05T04:14:01.372Z,15.80
2022-09-05T04:15:24.699Z,15.85
2022-09-05T04:16:33.111Z,15.79
2022-09-05T04:17:43.528Z,15.75
2022-09-05T04:19:05.990Z,15.77
2022-09-05T04:20:38.445Z,15.86
2022-09-05T04:23:13.533Z,15.85
2022-09-05T04:24:36.803Z,15.85
2022-09-05T04:26:12.163Z,15.95
2022-09-05T04:27:34.585Z,16.09
2022-09-05T04:29:00.823Z,15.97
2022-09-05T04:30:39.694Z,15.91
2022-09-05T04:32:18.709Z,16.08
2022-09-05T04:33:36.975Z,15.96
2022-09-05T04:34:56.646Z,15.83
2022-09-05T04:36:31.698Z,15.91
2022-09-05T04:38:55.938Z,16.15
2022-09-05T04:40:23.080Z,16.08
2022-09-05T04:41:39.966Z,16.21
2022-09-05T04:42:37.566Z,16.24
2022-09-05T04:43:50.938Z,16.31
2022-09-05T04:45:07.250Z,16.34
2022-09-05T04:46:19.502Z,16.34
2022-09-05T04:47:41.802Z,16.51
2022-09-05T04:49:08.907Z,16.58
2022-09-05T04:50:24.147Z,16.66
2022-09-05T04:51:31.799Z,16.50
2022-09-05T04:53:05.454Z,16.50
2022-09-05T04:54:36.947Z,16.61
2022-09-05T04:55:51.059Z,16.34
2022-09-05T04:56:57.643Z,16.25
2022-09-05T04:58:07.614Z,16.40
2022-09-05T05:01:31.140Z,16.59
2022-09-05T05:06:03.643Z,16.75
2022-09-05T05:06:11.234Z,16.84
2022-09-05T05:06:15.300Z,16.99
2022-09-05T05:06:42.316Z,16.74
2022-09-05T05:07:48.546Z,16.82
2022-09-05T05:09:30.985Z,17.06
2022-09-05T05:13:00.731Z,17.24
2022-09-05T05:17:56.010Z,17.42
2022-09-05T05:18:07.793Z,17.45
2022-09-05T05:18:09.767Z,17.87
2022-09-05T05:18:10.551Z,17.57
2022-09-05T05:18:16.392Z,17.52
2022-09-05T05:18:59.976Z,17.99
2022-09-05T05:21:20.904Z,18.06
2022-09-05T05:22:25.994Z,18.06
2022-09-05T05:23:39.468Z,17.96
2022-09-05T05:24:52.934Z,17.93
2022-09-05T05:25:59.720Z,17.97
2022-09-05T05:27:24.725Z,17.98
2022-09-05T05:28:44.458Z,17.95
2022-09-05T05:30:08.478Z,18.11
2022-09-05T05:31:29.469Z,18.26
2022-09-05T05:32:46.070Z,18.47
2022-09-05T05:33:50.246Z,18.61
2022-09-05T05:35:00.476Z,18.70
2022-09-05T05:36:08.544Z,18.93
2022-09-05T05:37:32.485Z,19.08
2022-09-05T05:38:47.259Z,19.01
2022-09-05T05:41:33.893Z,19.13
2022-09-05T05:42:41.123Z,19.15
2022-09-05T05:43:46.632Z,19.30
2022-09-05T05:44:55.012Z,19.43
2022-09-05T05:46:01.261Z,19.42
2022-09-05T05:48:27.243Z,19.49
2022-09-05T05:49:41.192Z,19.33
2022-09-05T05:50:54.200Z,19.10
2022-09-05T05:52:08.459Z,18.88
2022-09-05T05:53:43.188Z,18.75
2022-09-05T05:55:37.622Z,18.71
2022-09-05T05:56:22.852Z,18.89
2022-09-05T05:58:03.934Z,19.12
2022-09-05T05:59:24.750Z,19.20
2022-09-05T06:00:51.559Z,19.09
2022-09-05T06:02:16.598Z,18.96
2022-09-05T06:05:18.341Z,19.17
2022-09-05T06:06:43.455Z,19.15
2022-09-05T06:10:53.897Z,19.00
2022-09-05T06:14:50.873Z,19.06
2022-09-05T06:14:51.011Z,19.08
2022-09-05T06:14:57.481Z,19.00
2022-09-05T06:15:05.412Z,19.09
2022-09-05T06:15:27.724Z,19.07
2022-09-05T06:17:12.175Z,18.59
2022-09-05T06:18:45.881Z,18.49
2022-09-05T06:22:07.671Z,18.63
2022-09-05T06:24:28.289Z,18.70
2022-09-05T06:25:56.274Z,18.69
2022-09-05T06:27:22.981Z,18.72
2022-09-05T06:30:21.360Z,19.26
2022-09-05T06:31:43.098Z,19.20
2022-09-05T06:33:12.828Z,19.11
2022-09-05T06:36:10.605Z,19.47
2022-09-05T06:37:34.400Z,19.64
2022-09-05T06:39:00.387Z,20.00
2022-09-05T06:40:20.509Z,20.59
2022-09-05T06:41:52.915Z,23.24
2022-09-05T06:43:19.108Z,24.27
2022-09-05T06:44:54.513Z,24.22
2022-09-05T06:47:22.856Z,23.71
2022-09-05T06:47:36.732Z,24.27
2022-09-05T06:49:30.033Z,26.31
2022-09-05T06:50:21.731Z,27.80
2022-09-05T06:51:31.687Z,30.15
2022-09-05T06:52:59.158Z,32.08
2022-09-05T06:54:27.630Z,33.16
2022-09-05T06:55:44.122Z,29.90
2022-09-05T06:58:51.188Z,25.36
2022-09-05T07:00:22.504Z,24.84
2022-09-05T07:01:53.851Z,24.32
2022-09-05T07:02:58.921Z,22.94
2022-09-05T07:04:33.185Z,22.39
2022-09-05T07:05:39.849Z,21.97
2022-09-05T07:07:06.460Z,21.85
2022-09-05T07:08:35.825Z,22.74
2022-09-05T07:11:11.410Z,22.15
2022-09-05T07:12:16.276Z,21.80
2022-09-05T07:13:44.647Z,21.71
2022-09-05T07:15:11.458Z,21.78
2022-09-05T07:16:26.528Z,20.98
2022-09-05T07:18:09.710Z,20.62
2022-09-05T07:19:03.342Z,20.45
2022-09-05T07:20:30.705Z,19.71
2022-09-05T07:21:46.953Z,19.42
2022-09-05T07:22:55.192Z,18.91
2022-09-05T07:24:11.146Z,18.85
2022-09-05T07:25:21.071Z,18.65
2022-09-05T07:26:49.711Z,18.24
2022-09-05T07:27:41.986Z,18.00
2022-09-05T07:28:46.359Z,17.86
2022-09-05T07:30:00.955Z,17.75
2022-09-05T07:31:04.290Z,17.89
2022-09-05T07:32:10.697Z,17.64
2022-09-05T07:33:21.015Z,17.48
2022-09-05T07:34:35.418Z,17.55
2022-09-05T07:35:42.714Z,17.28
2022-09-05T07:36:48.516Z,16.91
2022-09-05T07:38:11.035Z,16.81
2022-09-05T07:39:28.869Z,17.11
2022-09-05T07:40:30.886Z,17.01
2022-09-05T07:41:40.911Z,17.10
2022-09-05T07:43:10.096Z,16.98
2022-09-05T07:44:18.831Z,17.10
2022-09-05T07:45:29.106Z,17.22
2022-09-05T07:46:36.284Z,17.22
2022-09-05T07:47:43.591Z,17.33
2022-09-05T07:48:50.925Z,17.48
2022-09-05T07:52:23.517Z,17.69
2022-09-05T07:55:59.239Z,17.52
2022-09-05T07:56:47.671Z,17.78
2022-09-05T07:56:55.562Z,17.79
2022-09-05T07:57:02.365Z,17.74
2022-09-05T07:57:08.981Z,17.69
2022-09-05T07:57:30.361Z,17.74
2022-09-05T07:58:15.328Z,17.65
2022-09-05T07:59:24.740Z,17.59
2022-09-05T08:00:32.061Z,17.50
2022-09-05T08:01:39.847Z,17.32
2022-09-05T08:02:50.235Z,17.15
2022-09-05T08:04:00.363Z,17.39
2022-09-05T08:05:05.737Z,17.55
2022-09-05T08:06:15.648Z,17.41
2022-09-05T08:07:46.737Z,17.35
2022-09-05T08:09:18.634Z,17.34
2022-09-05T08:10:08.064Z,17.24
2022-09-05T08:11:24.204Z,16.86
2022-09-05T08:12:28.341Z,16.34
2022-09-05T08:13:46.586Z,15.85
2022-09-05T08:14:57.214Z,15.68
2022-09-05T08:36:00.787Z,15.82
2022-09-05T08:37:03.097Z,15.78
2022-09-05T08:38:09.006Z,15.86
2022-09-05T08:39:22.620Z,16.04
2022-09-05T08:40:35.980Z,16.04
2022-09-05T08:42:05.970Z,16.16
2022-09-05T08:46:32.170Z,16.36
2022-09-05T08:46:40.509Z,16.54
2022-09-05T08:46:47.281Z,16.47
2022-09-05T08:46:55.923Z,16.60
2022-09-05T08:48:10.368Z,16.62
2022-09-05T08:51:01.172Z,16.97
2022-09-05T08:52:11.642Z,16.82
2022-09-05T08:53:52.245Z,16.73
2022-09-05T08:55:07.121Z,16.94
2022-09-05T08:56:23.081Z,16.95
2022-09-05T08:58:04.372Z,17.03
2022-09-05T08:59:27.635Z,17.31
2022-09-05T09:00:24.448Z,17.24
2022-09-05T09:02:13.780Z,17.40
2022-09-05T09:03:05.008Z,17.54
2022-09-05T09:04:41.690Z,17.75
2022-09-05T09:06:13.542Z,17.84
2022-09-05T09:07:47.224Z,17.91
2022-09-05T09:08:56.459Z,17.91
2022-09-05T09:10:25.767Z,18.07
2022-09-05T09:11:42.135Z,18.37
2022-09-05T09:12:55.327Z,18.62
2022-09-05T09:14:31.116Z,18.98
2022-09-05T09:16:16.289Z,19.39
2022-09-05T09:17:43.813Z,20.09
2022-09-05T09:18:54.122Z,20.37
2022-09-05T09:20:10.235Z,20.28
2022-09-05T09:21:35.899Z,20.39
2022-09-05T09:22:50.491Z,20.02
2022-09-05T09:24:00.630Z,19.93
2022-09-05T09:25:15.392Z,20.36
2022-09-05T09:26:25.444Z,20.49
2022-09-05T09:28:40.774Z,21.11
2022-09-05T09:29:06.940Z,21.33
2022-09-05T09:30:14.392Z,21.24
2022-09-05T09:31:39.333Z,21.34
2022-09-05T09:32:49.011Z,20.89
2022-09-05T09:34:23.766Z,20.99
2022-09-05T09:35:48.134Z,20.73
2022-09-05T09:37:31.965Z,20.86
2022-09-05T09:38:49.396Z,20.98
2022-09-05T09:40:23.271Z,20.80
2022-09-05T09:41:52.897Z,20.76
2022-09-05T09:43:10.417Z,21.08
2022-09-05T09:44:53.435Z,21.15
2022-09-05T09:46:10.922Z,21.03
2022-09-05T09:47:17.855Z,21.08
2022-09-05T09:48:36.637Z,21.34
2022-09-05T09:49:54.562Z,21.38
2022-09-05T09:51:19.056Z,21.40
2022-09-05T09:52:50.316Z,21.62
2022-09-05T09:54:03.937Z,21.81
2022-09-05T10:21:44.213Z,23.22
2022-09-05T10:23:15.179Z,23.52
2022-09-05T10:24:52.518Z,23.27
2022-09-05T10:26:27.589Z,22.83
2022-09-05T10:27:53.709Z,23.16
2022-09-05T10:29:35.237Z,22.92
2022-09-05T10:30:41.869Z,22.97
2022-09-05T10:33:16.956Z,22.86
2022-09-05T10:35:09.320Z,23.08
2022-09-05T10:35:16.837Z,23.19
2022-09-05T10:35:44.508Z,22.66
2022-09-05T10:37:05.153Z,22.53
2022-09-05T10:38:21.712Z,23.00
2022-09-05T10:39:31.689Z,23.10
2022-09-05T10:41:11.043Z,23.53
2022-09-05T10:41:51.038Z,23.78
2022-09-05T10:43:03.228Z,23.81
2022-09-05T10:44:12.427Z,23.90
2022-09-05T10:46:51.348Z,24.20
2022-09-05T10:48:14.261Z,24.08
2022-09-05T10:50:37.039Z,24.99
2022-09-05T10:51:53.188Z,24.60
2022-09-05T10:53:38.906Z,24.75
2022-09-05T10:54:38.599Z,24.15
2022-09-05T10:56:01.578Z,23.31
2022-09-05T10:57:20.911Z,22.44
2022-09-05T11:02:16.445Z,22.14
2022-09-05T11:02:19.266Z,21.44
2022-09-05T11:02:27.375Z,20.83
2022-09-05T11:02:49.095Z,20.48
2022-09-05T11:04:11.340Z,19.64
2022-09-05T11:05:27.871Z,19.19
2022-09-05T11:06:38.940Z,18.62
2022-09-05T11:08:07.262Z,18.49
2022-09-05T11:09:21.611Z,18.37
2022-09-05T11:10:40.469Z,18.71
2022-09-05T11:11:50.759Z,18.83
2022-09-05T11:13:06.623Z,18.68
2022-09-05T11:14:32.182Z,19.20
2022-09-05T11:16:04.355Z,19.66
2022-09-05T11:17:22.304Z,20.18
2022-09-05T11:18:56.458Z,20.45
2022-09-05T11:19:55.856Z,20.71
2022-09-05T11:22:29.399Z,21.26
2022-09-05T11:23:52.966Z,21.31
2022-09-05T11:25:02.335Z,21.46
2022-09-05T11:26:35.115Z,21.45
2022-09-05T11:27:44.696Z,21.53
2022-09-05T11:28:59.851Z,21.32
2022-09-05T11:30:09.051Z,21.23
2022-09-05T11:31:21.669Z,21.35
2022-09-05T11:37:52.256Z,21.09
2022-09-05T11:39:45.768Z,20.93
2022-09-05T11:39:48.206Z,20.98
2022-09-05T11:39:56.731Z,20.76
2022-09-05T11:40:26.341Z,20.97
2022-09-05T11:41:23.843Z,21.33
2022-09-05T11:42:52.023Z,21.46
2022-09-05T11:44:25.130Z,21.20
2022-09-05T11:45:42.766Z,20.98
2022-09-05T11:47:28.052Z,21.27
2022-09-05T11:48:55.447Z,21.36
2022-09-05T11:50:19.621Z,21.44
2022-09-05T11:51:49.004Z,21.78
2022-09-05T11:53:05.993Z,22.07
2022-09-05T11:54:13.681Z,21.96
2022-09-05T11:55:56.035Z,21.54
2022-09-05T11:57:31.894Z,21.51
2022-09-05T11:58:44.858Z,22.06
2022-09-05T12:00:31.301Z,22.16
2022-09-05T12:01:41.037Z,22.14
2022-09-05T12:02:45.005Z,22.27
2022-09-05T12:04:13.789Z,22.00
2022-09-05T12:05:48.966Z,21.81
2022-09-05T12:07:26.259Z,22.33
2022-09-05T12:08:32.928Z,22.17
2022-09-05T12:09:53.450Z,22.31
2022-09-05T12:11:11.005Z,22.14
2022-09-05T12:12:39.018Z,21.94
2022-09-05T12:13:39.999Z,21.96
2022-09-05T12:15:16.607Z,21.97
2022-09-05T12:16:41.951Z,21.64
2022-09-05T12:17:48.378Z,21.57
2022-09-05T12:19:18.982Z,21.46
2022-09-05T12:20:22.133Z,21.49
2022-09-05T12:21:35.637Z,21.23
2022-09-05T12:22:57.466Z,20.97
2022-09-05T12:25:24.198Z,21.11
2022-09-05T12:27:41.872Z,21.37
2022-09-05T12:27:42.551Z,21.33
2022-09-05T12:27:58.572Z,21.31
2022-09-05T12:29:32.607Z,21.23
2022-09-05T12:30:28.791Z,21.62
2022-09-05T12:32:37.720Z,21.72
2022-09-05T12:36:01.834Z,21.47
2022-09-05T12:36:04.240Z,21.47
2022-09-05T12:36:09.888Z,21.34
2022-09-05T12:40:28.688Z,21.30
2022-09-05T12:40:56.293Z,21.26
2022-09-05T12:40:56.296Z,21.31
2022-09-05T12:41:36.785Z,21.37
2022-09-05T12:42:11.335Z,21.25
2022-09-05T12:44:37.493Z,21.65
2022-09-05T12:44:39.478Z,21.88
2022-09-05T12:45:58.536Z,21.85
2022-09-05T12:47:18.835Z,22.09
2022-09-05T12:48:16.079Z,21.98
2022-09-05T12:49:47.275Z,21.88
2022-09-05T12:50:58.984Z,21.62
2022-09-05T12:52:09.217Z,21.61
2022-09-05T12:53:21.843Z,21.37
2022-09-05T12:54:33.346Z,20.87
2022-09-05T12:55:46.988Z,20.79
2022-09-05T13:02:02.811Z,20.77
2022-09-05T13:02:59.071Z,20.81
2022-09-05T13:03:01.530Z,20.90
2022-09-05T13:03:07.415Z,21.82
2022-09-05T13:03:14.118Z,21.34
2022-09-05T13:03:30.058Z,21.76
2022-09-05T13:04:47.339Z,21.44
2022-09-05T13:05:52.989Z,21.75
2022-09-05T13:07:10.481Z,21.72
2022-09-05T13:08:22.735Z,21.26
2022-09-05T13:10:39.443Z,21.00
2022-09-05T13:14:28.991Z,20.76
2022-09-05T13:14:50.100Z,20.33
2022-09-05T13:14:53.363Z,20.51
2022-09-05T13:14:59.360Z,20.48
2022-09-05T13:15:27.953Z,20.68
2022-09-05T13:16:35.083Z,20.80
2022-09-05T13:17:44.432Z,20.91
2022-09-05T13:18:50.928Z,21.22
2022-09-05T13:19:56.292Z,21.37
2022-09-05T13:21:14.023Z,21.18
2022-09-05T13:22:21.660Z,21.21
2022-09-05T13:23:40.974Z,21.17
2022-09-05T13:24:50.027Z,21.04
2022-09-05T13:26:02.407Z,21.43
2022-09-05T13:27:18.288Z,21.18
2022-09-05T13:28:25.148Z,21.00
2022-09-05T13:29:38.554Z,20.89
2022-09-05T13:37:54.634Z,20.98
2022-09-05T13:37:59.938Z,21.11
2022-09-05T13:38:02.724Z,20.92
2022-09-05T13:38:15.038Z,21.08
2022-09-05T13:38:21.304Z,21.21
2022-09-05T13:38:28.838Z,21.44
2022-09-05T13:38:47.507Z,21.50
2022-09-05T13:39:29.767Z,21.48
2022-09-05T13:40:49.707Z,21.17
2022-09-05T13:41:57.437Z,21.43
2022-09-05T13:43:14.887Z,21.22
2022-09-05T13:44:26.354Z,21.42
2022-09-05T13:45:30.446Z,21.39
2022-09-05T13:46:39.459Z,21.56
2022-09-05T13:48:01.312Z,21.72
2022-09-05T13:49:26.507Z,21.50
2022-09-05T13:50:42.075Z,21.72
2022-09-05T13:51:50.583Z,21.70
2022-09-05T13:52:59.931Z,21.61
2022-09-05T13:54:16.677Z,21.56
2022-09-05T13:56:39.034Z,21.23
2022-09-05T13:57:54.693Z,21.17
2022-09-05T13:59:11.137Z,20.96
2022-09-05T14:00:28.737Z,21.02
2022-09-05T14:01:36.424Z,21.09
2022-09-05T14:05:06.006Z,20.97
2022-09-05T14:06:47.057Z,20.79
2022-09-05T14:07:46.337Z,20.84
2022-09-05T14:10:34.574Z,20.64
2022-09-05T14:12:15.007Z,20.42
2022-09-05T14:13:36.626Z,20.42
2022-09-05T14:15:59.056Z,20.27
2022-09-05T14:18:44.265Z,20.36
2022-09-05T14:20:10.917Z,20.58
2022-09-05T14:21:16.893Z,20.71
2022-09-05T14:22:44.178Z,20.64
2022-09-05T14:24:03.167Z,20.43
2022-09-05T14:25:27.041Z,20.55
2022-09-05T14:26:43.952Z,20.17
2022-09-05T14:27:51.288Z,19.98
2022-09-05T14:29:19.695Z,19.88
2022-09-05T14:33:32.507Z,20.08
2022-09-05T14:37:34.844Z,20.38
2022-09-05T14:37:43.765Z,20.02
2022-09-05T14:37:48.705Z,19.94
2022-09-05T14:37:53.547Z,20.13
2022-09-05T14:38:01.085Z,19.96
2022-09-05T14:38:57.862Z,19.90
2022-09-05T14:40:33.036Z,20.05
2022-09-05T14:41:43.218Z,20.26
2022-09-05T14:43:07.389Z,20.30
2022-09-05T14:44:41.676Z,20.34
2022-09-05T14:46:04.236Z,20.40
2022-09-05T14:47:38.603Z,20.42
2022-09-05T14:49:00.850Z,20.34
2022-09-05T14:50:17.955Z,20.35
2022-09-05T14:51:26.530Z,20.18
2022-09-05T14:52:35.498Z,20.39
2022-09-05T14:54:06.190Z,20.39
2022-09-05T14:57:19.035Z,20.19
2022-09-05T15:02:47.896Z,20.10
2022-09-05T15:02:50.437Z,20.01
2022-09-05T15:02:53.944Z,20.27
2022-09-05T15:02:56.876Z,19.96
2022-09-05T15:05:03.137Z,19.74
2022-09-05T15:06:28.107Z,19.54
2022-09-05T15:07:37.789Z,19.77
2022-09-05T15:11:15.224Z,20.05
2022-09-05T15:12:15.016Z,19.90
2022-09-05T15:12:16.832Z,19.94
2022-09-05T15:12:31.343Z,19.76
2022-09-05T15:13:25.780Z,19.50
2022-09-05T15:14:33.258Z,19.56
2022-09-05T15:16:02.901Z,19.39
2022-09-05T15:17:10.549Z,19.25
2022-09-05T15:20:06.375Z,19.21
2022-09-05T15:21:34.534Z,19.03
2022-09-05T15:22:43.242Z,19.19
2022-09-05T15:25:25.497Z,19.05
2022-09-05T15:26:33.006Z,19.07
2022-09-05T15:27:37.057Z,18.90
2022-09-05T15:28:46.586Z,18.85
2022-09-05T15:29:55.247Z,18.93
2022-09-05T15:31:06.149Z,19.00
2022-09-05T15:32:23.620Z,18.85
2022-09-05T15:33:30.636Z,18.96
2022-09-05T15:34:38.507Z,18.96
2022-09-05T15:35:47.409Z,19.06
2022-09-05T15:37:09.282Z,18.87
2022-09-05T15:38:06.261Z,18.74
2022-09-05T15:39:29.168Z,18.93
2022-09-05T15:40:33.161Z,18.91
2022-09-05T15:41:43.382Z,18.72
2022-09-05T15:42:59.362Z,18.70
2022-09-05T15:44:09.687Z,18.87
2022-09-05T15:45:15.516Z,18.95
2022-09-05T15:46:51.012Z,19.00
2022-09-05T15:48:16.813Z,18.84
2022-09-05T15:49:43.788Z,18.61
2022-09-05T15:50:50.645Z,18.75
2022-09-05T15:53:15.647Z,18.95
2022-09-05T15:54:38.335Z,18.63
2022-09-05T15:55:58.251Z,18.52
2022-09-05T15:57:02.586Z,18.58
2022-09-05T15:58:11.470Z,18.70
2022-09-05T15:59:21.810Z,18.62
2022-09-05T16:00:37.205Z,18.73
2022-09-05T16:01:58.412Z,18.70
2022-09-05T16:03:05.320Z,18.72
2022-09-05T16:06:25.293Z,18.59
2022-09-05T16:10:36.681Z,18.66
2022-09-05T16:10:41.283Z,18.58
2022-09-05T16:10:45.158Z,18.73
2022-09-05T16:10:50.569Z,18.66
2022-09-05T16:13:08.337Z,18.79
2022-09-05T16:14:39.617Z,18.72
2022-09-05T16:20:31.631Z,18.57
2022-09-05T16:23:12.738Z,18.50
2022-09-05T16:23:13.513Z,18.49
2022-09-05T16:23:23.592Z,18.44
2022-09-05T16:23:26.985Z,18.45
2022-09-05T16:24:58.073Z,18.34
2022-09-05T16:25:52.444Z,18.37
2022-09-05T16:27:02.678Z,18.28
2022-09-05T16:28:17.268Z,18.33
2022-09-05T16:29:26.640Z,18.28
2022-09-05T16:30:33.766Z,18.28
2022-09-05T16:31:41.832Z,18.21
2022-09-05T16:32:51.457Z,18.19
2022-09-05T16:33:55.763Z,18.07
2022-09-05T16:35:10.406Z,18.02
2022-09-05T16:36:18.194Z,18.01
2022-09-05T16:37:42.546Z,17.82
2022-09-05T16:38:53.042Z,17.91
2022-09-05T16:40:03.094Z,18.05
2022-09-05T16:42:46.615Z,18.17
2022-09-05T16:43:57.702Z,18.10
2022-09-05T16:45:06.183Z,18.05
2022-09-05T16:46:33.222Z,18.08
2022-09-05T16:47:40.632Z,18.10
2022-09-05T16:49:05.769Z,18.05
2022-09-05T16:50:34.129Z,18.07
2022-09-05T16:51:40.433Z,18.07
2022-09-05T16:52:56.121Z,17.99
2022-09-05T16:55:49.002Z,18.08
2022-09-05T16:57:02.634Z,17.99
2022-09-05T16:58:18.944Z,17.99
2022-09-05T16:59:28.566Z,17.88
2022-09-05T17:00:42.990Z,17.83
2022-09-05T17:02:12.666Z,17.78
2022-09-05T17:03:29.296Z,17.69
2022-09-05T17:05:03.312Z,17.74
2022-09-05T17:06:03.685Z,17.82
2022-09-05T17:08:44.401Z,17.75
2022-09-05T17:09:51.714Z,17.71
2022-09-05T17:11:12.149Z,17.67
2022-09-05T17:12:21.949Z,17.58
2022-09-05T17:13:46.531Z,17.48
2022-09-05T17:14:54.841Z,17.52
2022-09-05T17:16:00.607Z,17.46
2022-09-05T17:17:36.488Z,17.48
2022-09-05T17:18:26.956Z,17.48
2022-09-05T17:19:37.500Z,17.52
2022-09-05T17:20:43.035Z,17.46
2022-09-05T17:27:19.895Z,17.49
2022-09-05T17:29:07.319Z,17.36
2022-09-05T17:29:28.587Z,17.15
2022-09-05T17:29:31.263Z,17.09
2022-09-05T17:29:33.141Z,17.20
2022-09-05T17:32:19.006Z,17.27
2022-09-05T17:33:43.414Z,17.37
2022-09-05T17:34:58.789Z,17.37
2022-09-05T17:36:08.099Z,17.34
2022-09-05T17:37:42.427Z,17.22
2022-09-05T17:39:09.426Z,17.22
2022-09-05T17:40:41.338Z,17.20
2022-09-05T17:41:52.738Z,17.19
2022-09-05T17:43:01.555Z,17.10
2022-09-05T17:44:16.859Z,17.00
2022-09-05T17:45:35.781Z,17.05
2022-09-05T17:46:54.552Z,17.04
2022-09-05T17:49:19.676Z,17.17
2022-09-05T17:51:51.103Z,17.20
2022-09-05T17:53:00.163Z,17.03
2022-09-05T17:54:11.461Z,17.05
2022-09-05T17:55:19.858Z,17.04
2022-09-05T17:56:41.730Z,17.04
2022-09-05T17:57:48.757Z,17.07
2022-09-05T17:59:16.539Z,16.88
2022-09-05T18:00:49.121Z,16.96
2022-09-05T18:02:16.486Z,17.02
2022-09-05T18:05:06.442Z,16.99
2022-09-05T18:06:22.153Z,16.84
2022-09-05T18:07:30.061Z,16.63
2022-09-05T18:11:28.360Z,16.74
2022-09-05T18:13:13.348Z,16.58
2022-09-05T18:14:01.756Z,16.53
2022-09-05T18:15:09.846Z,16.55
2022-09-05T18:16:14.401Z,16.62
2022-09-05T18:17:38.682Z,16.73
2022-09-05T18:19:57.757Z,16.69
2022-09-05T18:22:30.727Z,16.60
2022-09-05T18:23:43.663Z,16.53
2022-09-05T18:24:47.731Z,16.51
2022-09-05T18:26:04.557Z,16.56
2022-09-05T18:28:03.702Z,16.54
2022-09-05T18:29:08.204Z,16.54
2022-09-05T18:33:55.223Z,16.45
2022-09-05T18:34:29.004Z,16.54
2022-09-05T18:35:38.707Z,16.43
2022-09-05T18:36:51.169Z,16.48
2022-09-05T18:38:01.146Z,16.34
2022-09-05T18:39:29.794Z,16.38
2022-09-05T18:40:49.676Z,16.38
2022-09-05T18:42:26.568Z,16.47
2022-09-05T18:45:15.331Z,16.52
2022-09-05T18:46:21.786Z,16.54
2022-09-05T18:47:32.987Z,16.59
2022-09-05T18:49:57.565Z,16.43
2022-09-05T18:50:23.284Z,16.44
2022-09-05T18:51:15.092Z,16.48
2022-09-05T18:52:23.308Z,16.53
2022-09-05T18:53:33.963Z,16.57
2022-09-05T18:54:41.370Z,16.53
2022-09-05T18:56:13.520Z,16.50
2022-09-05T18:57:26.602Z,16.39
2022-09-05T18:58:27.959Z,16.45
2022-09-05T18:59:40.434Z,16.42
2022-09-05T19:00:50.805Z,16.34
2022-09-05T19:01:58.566Z,16.34